createdAt,value
2023-01-11T00:00:31.086Z,101186.47
2023-01-11T00:03:00.319Z,101184.00
2023-01-11T00:05:29.124Z,101183.16
2023-01-11T00:07:58.849Z,101186.72
2023-01-11T00:10:27.315Z,101197.47
2023-01-11T00:12:57.430Z,101192.00
2023-01-11T00:15:25.942Z,101185.00
2023-01-11T00:17:54.444Z,101196.41
2023-01-11T00:20:23.189Z,101187.78
2023-01-11T00:22:51.730Z,101194.00
2023-01-11T00:25:20.489Z,101197.47
2023-01-11T00:27:49.756Z,101187.50
2023-01-11T00:30:20.574Z,101188.47
2023-01-11T00:32:49.190Z,101186.56
2023-01-11T00:35:17.958Z,101194.94
2023-01-11T00:37:46.375Z,101190.47
2023-01-11T00:40:15.452Z,101195.88
2023-01-11T00:43:01.344Z,101198.38
2023-01-11T00:45:49.649Z,101196.63
2023-01-11T00:48:18.247Z,101194.94
2023-01-11T00:50:46.795Z,101206.38
2023-01-11T00:53:15.740Z,101201.03
2023-01-11T00:55:44.360Z,101196.44
2023-01-11T00:58:12.878Z,101195.78
2023-01-11T01:00:42.761Z,101193.06
2023-01-11T01:03:11.361Z,101200.81
2023-01-11T01:05:40.196Z,101200.09
2023-01-11T01:08:08.749Z,101191.78
2023-01-11T01:10:37.251Z,101184.47
2023-01-11T01:13:23.196Z,101190.94
2023-01-11T01:15:58.303Z,101185.75
2023-01-11T01:18:26.962Z,101188.28
2023-01-11T01:20:55.441Z,101184.47
2023-01-11T01:23:24.094Z,101183.91
2023-01-11T01:25:52.701Z,101180.00
2023-01-11T01:28:22.410Z,101181.88
2023-01-11T01:30:55.444Z,101181.16
2023-01-11T01:33:24.642Z,101179.59
2023-01-11T01:35:53.168Z,101183.13
2023-01-11T01:38:21.612Z,101180.59
2023-01-11T01:40:50.175Z,101178.88
2023-01-11T01:43:19.558Z,101175.16
2023-01-11T01:45:50.176Z,101177.00
2023-01-11T01:48:25.634Z,101175.94
2023-01-11T01:50:57.230Z,101182.06
2023-01-11T01:53:31.950Z,101186.81
2023-01-11T01:56:03.702Z,101188.75
2023-01-11T01:58:40.399Z,101194.28
2023-01-11T02:01:22.954Z,101194.94
2023-01-11T02:03:54.537Z,101199.09
2023-01-11T02:06:24.857Z,101199.56
2023-01-11T02:09:01.466Z,101205.69
2023-01-11T02:11:32.896Z,101202.88
2023-01-11T02:14:05.220Z,101209.03
2023-01-11T02:16:34.014Z,101212.97
2023-01-11T02:19:04.996Z,101219.53
2023-01-11T02:21:44.797Z,101223.59
2023-01-11T02:24:39.059Z,101228.88
2023-01-11T02:27:30.262Z,101229.88
2023-01-11T02:30:16.010Z,101226.34
2023-01-11T02:32:57.993Z,101225.81
2023-01-11T02:35:37.170Z,101223.22
2023-01-11T02:38:11.965Z,101228.69
2023-01-11T02:40:52.317Z,101232.31
2023-01-11T02:43:46.260Z,101229.75
2023-01-11T02:46:23.588Z,101227.00
2023-01-11T02:49:00.506Z,101227.97
2023-01-11T02:51:36.885Z,101228.97
2023-01-11T02:54:08.646Z,101233.13
2023-01-11T02:56:40.426Z,101231.59
2023-01-11T02:59:12.299Z,101241.34
2023-01-11T03:01:51.090Z,101251.88
2023-01-11T03:04:28.101Z,101240.41
2023-01-11T03:07:12.452Z,101249.16
2023-01-11T03:09:52.693Z,101247.31
2023-01-11T03:12:55.098Z,101240.59
2023-01-11T03:15:48.489Z,101243.25
2023-01-11T03:18:31.719Z,101243.41
2023-01-11T03:21:09.021Z,101251.50
2023-01-11T03:23:47.760Z,101250.97
2023-01-11T03:26:25.439Z,101247.69
2023-01-11T03:29:02.225Z,101238.63
2023-01-11T03:31:36.412Z,101225.63
2023-01-11T03:34:16.167Z,101222.13
2023-01-11T03:36:53.883Z,101222.38
2023-01-11T03:39:28.675Z,101231.94
2023-01-11T03:42:01.585Z,101230.13
2023-01-11T03:44:35.256Z,101237.03
2023-01-11T03:47:08.344Z,101217.28
2023-01-11T03:49:42.811Z,101222.38
2023-01-11T03:52:16.014Z,101209.13
2023-01-11T03:54:45.784Z,101211.09
2023-01-11T03:57:20.104Z,101212.31
2023-01-11T03:59:49.932Z,101206.22
2023-01-11T04:02:20.267Z,101211.91
2023-01-11T04:04:50.687Z,101212.72
2023-01-11T04:07:19.734Z,101203.00
2023-01-11T04:09:48.705Z,101202.75
2023-01-11T04:12:18.168Z,101200.13
2023-01-11T04:14:47.103Z,101198.47
2023-01-11T04:17:15.883Z,101202.25
2023-01-11T04:19:45.003Z,101198.41
2023-01-11T04:22:15.592Z,101201.25
2023-01-11T04:24:44.441Z,101198.59
2023-01-11T04:27:13.864Z,101201.06
2023-01-11T04:29:43.184Z,101196.84
2023-01-11T04:32:12.067Z,101181.59
2023-01-11T04:34:41.006Z,101175.84
2023-01-11T04:37:09.910Z,101180.38
2023-01-11T04:39:40.140Z,101178.50
2023-01-11T04:42:19.925Z,101180.38
2023-01-11T04:44:49.450Z,101181.94
2023-01-11T04:47:19.203Z,101173.44
2023-01-11T04:49:48.271Z,101170.78
2023-01-11T04:52:19.061Z,101174.47
2023-01-11T04:54:49.562Z,101172.88
2023-01-11T04:57:18.624Z,101168.44
2023-01-11T04:59:47.876Z,101164.06
2023-01-11T05:02:17.242Z,101170.31
2023-01-11T05:04:46.304Z,101170.31
2023-01-11T05:07:15.141Z,101168.72
2023-01-11T05:09:44.245Z,101176.47
2023-01-11T05:12:14.679Z,101168.44
2023-01-11T05:14:43.495Z,101163.00
2023-01-11T05:17:15.602Z,101147.81
2023-01-11T05:19:44.768Z,101148.81
2023-01-11T05:22:13.660Z,101153.31
2023-01-11T05:24:42.389Z,101144.13
2023-01-11T05:27:11.137Z,101144.97
2023-01-11T05:29:41.468Z,101155.19
2023-01-11T05:32:12.444Z,101145.16
2023-01-11T05:34:41.389Z,101146.22
2023-01-11T05:37:10.061Z,101152.66
2023-01-11T05:39:38.913Z,101156.81
2023-01-11T05:42:07.674Z,101154.06
2023-01-11T05:44:53.525Z,101153.31
2023-01-11T05:47:27.049Z,101155.19
2023-01-11T05:49:56.253Z,101157.78
2023-01-11T05:52:24.749Z,101150.81
2023-01-11T05:54:53.707Z,101153.53
2023-01-11T05:57:22.479Z,101150.94
2023-01-11T05:59:51.217Z,101144.66
2023-01-11T06:02:20.049Z,101140.06
2023-01-11T06:04:50.347Z,101134.91
2023-01-11T06:07:19.164Z,101139.94
2023-01-11T06:09:47.981Z,101146.13
2023-01-11T06:12:16.896Z,101148.31
2023-01-11T06:14:45.981Z,101150.81
2023-01-11T06:17:14.858Z,101143.91
2023-01-11T06:19:44.549Z,101144.56
2023-01-11T06:22:14.873Z,101151.09
2023-01-11T06:24:43.848Z,101151.19
2023-01-11T06:27:12.792Z,101136.75
2023-01-11T06:29:41.619Z,101146.84
2023-01-11T06:32:10.260Z,101156.78
2023-01-11T06:34:39.327Z,101144.81
2023-01-11T06:37:07.942Z,101142.59
2023-01-11T06:39:38.223Z,101146.03
2023-01-11T06:42:06.926Z,101149.34
2023-01-11T06:44:36.293Z,101150.50
2023-01-11T06:47:05.003Z,101151.63
2023-01-11T06:49:33.854Z,101159.00
2023-01-11T06:52:02.734Z,101156.78
2023-01-11T06:54:31.584Z,101169.22
2023-01-11T06:57:02.114Z,101164.88
2023-01-11T06:59:31.283Z,101171.22
2023-01-11T07:02:00.874Z,101171.22
2023-01-11T07:04:32.966Z,101170.22
2023-01-11T07:07:02.411Z,101159.81
2023-01-11T07:09:31.608Z,101166.06
2023-01-11T07:12:02.071Z,101172.03
2023-01-11T07:14:30.881Z,101174.72
2023-01-11T07:17:00.061Z,101180.97
2023-01-11T07:19:29.226Z,101182.47
2023-01-11T07:21:58.083Z,101184.00
2023-01-11T07:24:26.868Z,101180.97
2023-01-11T07:26:56.473Z,101178.50
2023-01-11T07:29:27.159Z,101183.00
2023-01-11T07:31:56.169Z,101186.50
2023-01-11T07:34:26.183Z,101181.34
2023-01-11T07:36:55.033Z,101186.25
2023-01-11T07:39:34.838Z,101179.22
2023-01-11T07:42:30.090Z,101193.53
2023-01-11T07:45:00.407Z,101187.16
2023-01-11T07:47:29.433Z,101187.50
2023-01-11T07:49:58.368Z,101188.63
2023-01-11T07:52:27.159Z,101184.41
2023-01-11T07:54:56.048Z,101179.63
2023-01-11T07:57:24.784Z,101186.06
2023-01-11T07:59:53.587Z,101191.94
2023-01-11T08:02:23.898Z,101182.47
2023-01-11T08:04:52.844Z,101185.59
2023-01-11T08:07:21.708Z,101187.84
2023-01-11T08:09:50.533Z,101185.38
2023-01-11T08:12:36.671Z,101189.91
2023-01-11T08:15:06.447Z,101193.47
2023-01-11T08:17:36.887Z,101190.94
2023-01-11T08:20:06.270Z,101185.38
2023-01-11T08:22:35.534Z,101187.97
2023-01-11T08:25:04.387Z,101187.13
2023-01-11T08:27:33.172Z,101190.44
2023-01-11T08:30:02.066Z,101184.13
2023-01-11T08:32:30.773Z,101187.59
2023-01-11T08:35:01.106Z,101190.44
2023-01-11T08:37:30.016Z,101189.81
2023-01-11T08:39:58.971Z,101189.00
2023-01-11T08:42:27.847Z,101196.66
2023-01-11T08:44:56.684Z,101193.47
2023-01-11T08:47:25.524Z,101196.78
2023-01-11T08:49:54.393Z,101187.97
2023-01-11T08:52:24.547Z,101185.38
2023-01-11T08:54:53.203Z,101182.94
2023-01-11T08:57:22.405Z,101193.53
2023-01-11T08:59:51.358Z,101172.75
2023-01-11T09:02:20.285Z,101173.06
2023-01-11T09:04:48.929Z,101174.78
2023-01-11T09:07:17.585Z,101169.41
2023-01-11T09:09:47.925Z,101178.84
2023-01-11T09:12:16.694Z,101174.53
2023-01-11T09:14:45.704Z,101172.88
2023-01-11T09:17:14.552Z,101183.00
2023-01-11T09:19:43.372Z,101182.34
2023-01-11T09:22:12.201Z,101177.97
2023-01-11T09:24:40.973Z,101182.19
2023-01-11T09:27:11.986Z,101177.97
2023-01-11T09:29:40.981Z,101174.34
2023-01-11T09:32:09.752Z,101170.06
2023-01-11T09:34:39.429Z,101178.34
2023-01-11T09:37:08.265Z,101180.00
2023-01-11T09:39:37.396Z,101173.94
2023-01-11T09:42:29.586Z,101172.97
2023-01-11T09:45:03.403Z,101179.72
2023-01-11T09:47:36.929Z,101178.88
2023-01-11T09:50:13.142Z,101180.72
2023-01-11T09:52:46.531Z,101166.50
2023-01-11T09:55:23.207Z,101164.84
2023-01-11T09:58:16.711Z,101168.91
2023-01-11T10:00:54.220Z,101167.47
2023-01-11T10:04:13.227Z,101154.13
2023-01-11T10:06:53.129Z,101156.69
2023-01-11T10:18:41.722Z,101153.56
2023-01-11T10:19:12.311Z,101152.06
2023-01-11T10:21:44.573Z,101143.78
2023-01-11T10:24:21.106Z,101151.53
2023-01-11T10:26:57.004Z,101139.34
2023-01-11T10:29:50.298Z,101138.47
2023-01-11T10:32:40.966Z,101134.88
2023-01-11T10:35:30.146Z,101128.34
2023-01-11T10:38:23.492Z,101120.75
2023-01-11T10:41:16.364Z,101123.06
2023-01-11T10:43:49.322Z,101125.31
2023-01-11T10:46:21.580Z,101110.63
2023-01-11T10:49:09.879Z,101116.91
2023-01-11T10:51:44.590Z,101118.75
2023-01-11T10:54:16.945Z,101118.88
2023-01-11T10:57:04.725Z,101105.56
2023-01-11T10:59:53.196Z,101104.72
2023-01-11T11:02:36.562Z,101112.94
2023-01-11T11:05:20.992Z,101106.63
2023-01-11T11:07:57.689Z,101104.50
2023-01-11T11:10:33.913Z,101100.16
2023-01-11T11:13:14.007Z,101087.75
2023-01-11T11:15:50.794Z,101088.44
2023-01-11T11:18:19.673Z,101087.91
2023-01-11T11:20:49.901Z,101087.22
2023-01-11T11:23:25.215Z,101065.25
2023-01-11T11:26:00.133Z,101073.78
2023-01-11T11:28:31.202Z,101069.47
2023-01-11T11:31:01.007Z,101077.41
2023-01-11T11:33:36.435Z,101071.22
2023-01-11T11:36:09.083Z,101073.44
2023-01-11T11:38:39.978Z,101081.19
2023-01-11T11:41:10.526Z,101088.94
2023-01-11T11:43:40.798Z,101085.69
2023-01-11T11:46:25.182Z,101087.34
2023-01-11T11:49:13.675Z,101089.28
2023-01-11T11:51:45.323Z,101078.75
2023-01-11T11:54:22.713Z,101082.00
2023-01-11T11:56:52.069Z,101081.00
2023-01-11T11:59:23.913Z,101078.22
2023-01-11T12:02:01.389Z,101069.63
2023-01-11T12:04:48.110Z,101070.56
2023-01-11T12:07:21.384Z,101068.28
2023-01-11T12:09:52.366Z,101059.53
2023-01-11T12:12:27.358Z,101065.78
2023-01-11T12:15:23.291Z,101064.03
2023-01-11T12:17:52.677Z,101063.84
2023-01-11T12:20:44.953Z,101061.25
2023-01-11T12:23:21.825Z,101050.66
2023-01-11T12:26:13.825Z,101056.09
2023-01-11T12:29:15.722Z,101061.53
2023-01-11T12:31:57.205Z,101051.06
2023-01-11T12:34:40.083Z,101052.25
2023-01-11T12:37:18.350Z,101044.69
2023-01-11T12:39:56.769Z,101050.78
2023-01-11T12:43:06.352Z,101050.59
2023-01-11T12:45:46.402Z,101039.94
2023-01-11T12:48:46.741Z,101039.22
2023-01-11T12:51:25.594Z,101041.66
2023-01-11T12:54:06.593Z,101030.41
2023-01-11T12:57:00.251Z,101018.66
2023-01-11T12:59:44.827Z,101022.84
2023-01-11T13:02:32.907Z,101025.66
2023-01-11T13:05:14.549Z,101022.34
2023-01-11T13:08:01.106Z,101005.75
2023-01-11T13:10:41.491Z,101005.75
2023-01-11T13:13:16.707Z,101000.75
2023-01-11T13:15:54.323Z,101007.16
2023-01-11T13:18:31.669Z,100999.03
2023-01-11T13:21:08.712Z,100993.75
2023-01-11T13:24:05.631Z,100988.66
2023-01-11T13:26:38.835Z,100991.25
2023-01-11T13:29:16.274Z,100980.69
2023-01-11T13:31:48.163Z,100985.75
2023-01-11T13:34:24.419Z,100980.66
2023-01-11T13:36:59.253Z,100989.63
2023-01-11T13:39:34.243Z,100991.56
2023-01-11T13:42:11.267Z,100986.31
2023-01-11T13:44:47.931Z,100995.00
2023-01-11T13:47:20.841Z,100994.25
2023-01-11T13:50:00.284Z,100988.13
2023-01-11T13:52:45.793Z,100991.47
2023-01-11T13:55:25.948Z,100984.63
2023-01-11T13:58:01.786Z,100982.06
2023-01-11T14:00:37.715Z,100984.28
2023-01-11T14:03:18.066Z,100989.09
2023-01-11T14:05:54.280Z,100990.81
2023-01-11T14:08:50.628Z,100997.09
2023-01-11T14:11:27.405Z,100978.72
2023-01-11T14:14:23.613Z,100983.28
2023-01-11T14:17:36.747Z,100978.91
2023-01-11T14:20:14.516Z,100968.78
2023-01-11T14:22:51.513Z,100973.47
2023-01-11T14:25:26.116Z,100954.72
2023-01-11T14:28:22.323Z,100966.34
2023-01-11T14:31:12.305Z,100955.50
2023-01-11T14:34:11.222Z,100956.03
2023-01-11T14:37:15.512Z,100951.78
2023-01-11T14:40:01.351Z,100942.00
2023-01-11T14:43:19.061Z,100938.75
2023-01-11T14:46:05.476Z,100942.50
2023-01-11T14:48:44.313Z,100943.84
2023-01-11T14:51:34.295Z,100945.13
2023-01-11T14:54:09.504Z,100934.78
2023-01-11T14:56:55.973Z,100934.72
2023-01-11T14:59:40.000Z,100926.66
2023-01-11T15:02:16.425Z,100933.91
2023-01-11T15:05:05.344Z,100928.63
2023-01-11T15:07:41.839Z,100918.94
2023-01-11T15:10:45.995Z,100923.47
2023-01-11T15:13:19.860Z,100929.00
2023-01-11T15:16:06.060Z,100917.56
2023-01-11T15:18:45.952Z,100928.75
2023-01-11T15:21:19.634Z,100923.00
2023-01-11T15:23:52.211Z,100929.81
2023-01-11T15:26:22.532Z,100931.13
2023-01-11T15:28:53.353Z,100933.00
2023-01-11T15:31:34.581Z,100925.03
2023-01-11T15:34:07.265Z,100930.38
2023-01-11T15:37:00.149Z,100931.84
2023-01-11T15:39:40.537Z,100921.53
2023-01-11T15:42:38.099Z,100930.38
2023-01-11T15:46:16.018Z,100920.06
2023-01-11T15:49:12.632Z,100915.38
2023-01-11T15:52:07.034Z,100912.19
2023-01-11T15:54:56.215Z,100913.66
2023-01-11T15:57:55.794Z,100918.88
2023-01-11T16:01:06.416Z,100915.25
2023-01-11T16:04:03.718Z,100917.94
2023-01-11T16:06:43.038Z,100914.44
2023-01-11T16:09:35.280Z,100921.13
2023-01-11T16:12:25.525Z,100909.59
2023-01-11T16:15:33.852Z,100907.84
2023-01-11T16:18:13.339Z,100895.56
2023-01-11T16:20:46.091Z,100896.56
2023-01-11T16:23:22.830Z,100886.56
2023-01-11T16:25:57.667Z,100869.22
2023-01-11T16:28:29.154Z,100886.03
2023-01-11T16:31:02.367Z,100883.53
2023-01-11T16:33:35.593Z,100872.81
2023-01-11T16:36:09.242Z,100883.16
2023-01-11T16:38:47.394Z,100865.69
2023-01-11T16:41:18.188Z,100854.50
2023-01-11T16:43:55.687Z,100852.84
2023-01-11T16:47:00.429Z,100846.38
2023-01-11T16:49:29.247Z,100846.56
2023-01-11T16:52:00.743Z,100842.22
2023-01-11T16:54:33.872Z,100842.00
2023-01-11T16:57:04.018Z,100840.13
2023-01-11T16:59:35.834Z,100836.72
2023-01-11T17:02:25.360Z,100835.00
2023-01-11T17:04:56.501Z,100832.22
2023-01-11T17:07:28.209Z,100832.44
2023-01-11T17:10:17.681Z,100820.13
2023-01-11T17:12:50.449Z,100815.34
2023-01-11T17:15:33.615Z,100810.59
2023-01-11T17:18:13.752Z,100816.56
2023-01-11T17:20:42.797Z,100817.34
2023-01-11T17:23:16.558Z,100816.28
2023-01-11T17:25:45.450Z,100810.34
2023-01-11T17:28:19.582Z,100812.00
2023-01-11T17:30:53.766Z,100818.94
2023-01-11T17:33:34.614Z,100806.22
2023-01-11T17:36:04.268Z,100803.00
2023-01-11T17:38:33.254Z,100805.38
2023-01-11T17:41:22.996Z,100806.13
2023-01-11T17:44:08.992Z,100799.94
2023-01-11T17:46:41.720Z,100798.09
2023-01-11T17:49:22.491Z,100801.69
2023-01-11T17:51:51.543Z,100799.94
2023-01-11T17:54:21.701Z,100793.75
2023-01-11T17:56:57.440Z,100799.03
2023-01-11T17:59:28.017Z,100799.81
2023-01-11T18:01:59.865Z,100801.53
2023-01-11T18:04:29.538Z,100801.53
2023-01-11T18:07:07.358Z,100800.53
2023-01-11T18:09:41.615Z,100800.53
2023-01-11T18:12:15.584Z,100798.41
2023-01-11T18:14:50.488Z,100791.25
2023-01-11T18:17:36.330Z,100782.75
2023-01-11T18:20:38.931Z,100785.91
2023-01-11T18:23:23.365Z,100783.13
2023-01-11T18:26:12.144Z,100778.97
2023-01-11T18:28:40.793Z,100772.59
2023-01-11T18:31:09.401Z,100779.41
2023-01-11T18:33:42.013Z,100768.25
2023-01-11T18:36:20.740Z,100768.66
2023-01-11T18:38:49.413Z,100757.97
2023-01-11T18:41:44.919Z,100746.44
2023-01-11T18:44:14.164Z,100752.16
2023-01-11T18:46:42.938Z,100747.28
2023-01-11T18:49:13.166Z,100740.50
2023-01-11T18:51:42.004Z,100740.09
2023-01-11T18:54:18.048Z,100747.28
2023-01-11T18:56:47.730Z,100745.78
2023-01-11T18:59:16.438Z,100743.72
2023-01-11T19:01:56.633Z,100745.22
2023-01-11T19:04:35.746Z,100745.09
2023-01-11T19:07:04.822Z,100739.94
2023-01-11T19:09:33.455Z,100732.66
2023-01-11T19:12:02.336Z,100729.78
2023-01-11T19:14:30.995Z,100734.28
2023-01-11T19:16:59.814Z,100717.72
2023-01-11T19:19:30.528Z,100722.00
2023-01-11T19:22:00.686Z,100716.13
2023-01-11T19:24:29.652Z,100719.47
2023-01-11T19:26:58.452Z,100710.78
2023-01-11T19:29:27.498Z,100719.22
2023-01-11T19:32:04.235Z,100719.22
2023-01-11T19:34:35.193Z,100719.91
2023-01-11T19:37:05.458Z,100723.78
2023-01-11T19:39:34.773Z,100723.84
2023-01-11T19:42:03.438Z,100724.72
2023-01-11T19:44:33.737Z,100719.47
2023-01-11T19:47:11.237Z,100724.13
2023-01-11T19:49:41.570Z,100723.00
2023-01-11T19:52:14.308Z,100717.63
2023-01-11T19:54:43.614Z,100716.72
2023-01-11T19:57:20.869Z,100715.78
2023-01-11T19:59:50.845Z,100708.91
2023-01-11T20:02:23.219Z,100710.47
2023-01-11T20:04:52.004Z,100714.78
2023-01-11T20:07:22.314Z,100722.34
2023-01-11T20:09:50.951Z,100719.06
2023-01-11T20:12:19.655Z,100720.13
2023-01-11T20:14:48.352Z,100717.63
2023-01-11T20:17:21.137Z,100710.47
2023-01-11T20:19:54.710Z,100712.19
2023-01-11T20:22:26.052Z,100708.63
2023-01-11T20:24:57.575Z,100708.91
2023-01-11T20:27:26.260Z,100717.03
2023-01-11T20:29:55.076Z,100710.91
2023-01-11T20:32:42.157Z,100711.47
2023-01-11T20:35:12.237Z,100705.34
2023-01-11T20:37:45.541Z,100704.50
2023-01-11T20:40:14.796Z,100707.91
2023-01-11T20:42:43.706Z,100708.78
2023-01-11T20:45:13.082Z,100713.19
2023-01-11T20:47:41.860Z,100716.97
2023-01-11T20:50:14.239Z,100706.47
2023-01-11T20:52:44.956Z,100705.41
2023-01-11T20:55:13.815Z,100707.91
2023-01-11T20:57:42.770Z,100708.78
2023-01-11T21:00:13.967Z,100713.91
2023-01-11T21:02:42.708Z,100714.91
2023-01-11T21:05:21.805Z,100712.97
2023-01-11T21:07:54.204Z,100711.63
2023-01-11T21:10:22.786Z,100702.53
2023-01-11T21:12:52.907Z,100711.91
2023-01-11T21:15:21.823Z,100702.47
2023-01-11T21:17:50.536Z,100697.25
2023-01-11T21:20:19.401Z,100697.75
2023-01-11T21:22:48.063Z,100695.19
2023-01-11T21:25:18.697Z,100684.81
2023-01-11T21:27:47.385Z,100692.03
2023-01-11T21:30:16.405Z,100692.75
2023-01-11T21:32:45.083Z,100690.75
2023-01-11T21:35:14.066Z,100697.63
2023-01-11T21:37:42.716Z,100696.94
2023-01-11T21:40:14.333Z,100693.66
2023-01-11T21:42:44.966Z,100682.88
2023-01-11T21:45:13.844Z,100683.59
2023-01-11T21:47:45.598Z,100682.00
2023-01-11T21:50:14.385Z,100680.78
2023-01-11T21:52:43.090Z,100670.22
2023-01-11T21:55:12.583Z,100672.78
2023-01-11T21:57:41.143Z,100657.41
2023-01-11T22:00:14.885Z,100664.50
2023-01-11T22:02:43.589Z,100661.97
2023-01-11T22:05:12.307Z,100660.47
2023-01-11T22:07:43.707Z,100661.31
2023-01-11T22:10:13.146Z,100658.84
2023-01-11T22:12:41.863Z,100664.97
2023-01-11T22:15:12.717Z,100673.66
2023-01-11T22:17:41.523Z,100672.00
2023-01-11T22:20:11.628Z,100663.97
2023-01-11T22:22:40.426Z,100667.72
2023-01-11T22:25:09.784Z,100672.16
2023-01-11T22:27:38.585Z,100662.28
2023-01-11T22:30:08.529Z,100662.28
2023-01-11T22:32:38.914Z,100671.91
2023-01-11T22:35:08.558Z,100667.41
2023-01-11T22:37:37.350Z,100656.03
2023-01-11T22:40:06.766Z,100647.97
2023-01-11T22:42:35.341Z,100658.69
2023-01-11T22:45:05.258Z,100651.63
2023-01-11T22:47:34.089Z,100640.09
2023-01-11T22:50:04.506Z,100644.69
2023-01-11T22:52:33.567Z,100635.50
2023-01-11T22:55:02.108Z,100637.50
2023-01-11T22:57:30.828Z,100627.00
2023-01-11T22:59:59.406Z,100618.34
2023-01-11T23:02:28.167Z,100622.63
2023-01-11T23:04:56.883Z,100621.72
2023-01-11T23:07:26.918Z,100618.13
2023-01-11T23:09:55.487Z,100616.34
2023-01-11T23:12:41.348Z,100613.69
2023-01-11T23:15:11.274Z,100610.34
2023-01-11T23:17:39.803Z,100613.47
2023-01-11T23:20:09.405Z,100600.34
2023-01-11T23:22:39.449Z,100599.53
2023-01-11T23:25:09.314Z,100599.53
2023-01-11T23:27:37.799Z,100597.31
2023-01-11T23:30:07.466Z,100598.31
2023-01-11T23:32:36.066Z,100601.75
2023-01-11T23:35:05.558Z,100597.81
2023-01-11T23:37:34.121Z,100595.16
2023-01-11T23:40:04.282Z,100588.00
2023-01-11T23:42:31.911Z,100583.56
2023-01-11T23:45:00.489Z,100588.00
2023-01-11T23:47:29.977Z,100577.53
2023-01-11T23:50:00.615Z,100582.56
2023-01-11T23:52:31.233Z,100575.91
2023-01-11T23:55:00.774Z,100570.13
2023-01-11T23:57:30.974Z,100571.13
2023-01-11T23:59:59.700Z,100569.50
